sensor_id;sensor_type;location;lat;lon;timestamp;P1;durP1;ratioP1;P2;durP2;ratioP2
48849;SDS011;63210;53.370;6.770;2023-03-14T00:01:42;25.30;;;4.45;;
48849;SDS011;63210;53.370;6.770;2023-03-14T00:04:24;27.33;;;5.13;;
48849;SDS011;63210;53.370;6.770;2023-03-14T00:06:58;26.67;;;6.22;;
48849;SDS011;63210;53.370;6.770;2023-03-14T00:09:45;25.65;;;5.20;;
48849;SDS011;63210;53.370;6.770;2023-03-14T00:12:13;29.20;;;5.22;;
48849;SDS011;63210;53.370;6.770;2023-03-14T00:14:46;29.00;;;5.95;;
48849;SDS011;63210;53.370;6.770;2023-03-14T00:17:11;28.38;;;6.55;;
48849;SDS011;63210;53.370;6.770;2023-03-14T00:19:50;23.77;;;5.40;;
48849;SDS011;63210;53.370;6.770;2023-03-14T00:22:19;30.75;;;4.88;;
48849;SDS011;63210;53.370;6.770;2023-03-14T00:24:53;22.52;;;4.60;;
48849;SDS011;63210;53.370;6.770;2023-03-14T00:27:27;25.40;;;4.75;;
48849;SDS011;63210;53.370;6.770;2023-03-14T00:29:55;28.52;;;4.90;;
48849;SDS011;63210;53.370;6.770;2023-03-14T00:32:23;32.08;;;5.55;;
48849;SDS011;63210;53.370;6.770;2023-03-14T00:34:51;24.35;;;5.10;;
48849;SDS011;63210;53.370;6.770;2023-03-14T00:37:20;31.05;;;4.95;;
48849;SDS011;63210;53.370;6.770;2023-03-14T00:39:45;27.95;;;4.85;;
48849;SDS011;63210;53.370;6.770;2023-03-14T00:42:13;25.23;;;5.80;;
48849;SDS011;63210;53.370;6.770;2023-03-14T00:45:01;25.08;;;5.55;;
48849;SDS011;63210;53.370;6.770;2023-03-14T00:47:35;23.08;;;4.68;;
48849;SDS011;63210;53.370;6.770;2023-03-14T00:52:45;27.38;;;5.75;;
48849;SDS011;63210;53.370;6.770;2023-03-14T00:55:16;25.05;;;5.22;;
48849;SDS011;63210;53.370;6.770;2023-03-14T00:57:47;23.88;;;5.00;;
48849;SDS011;63210;53.370;6.770;2023-03-14T01:00:16;26.08;;;5.22;;
48849;SDS011;63210;53.370;6.770;2023-03-14T01:02:42;22.73;;;3.78;;
48849;SDS011;63210;53.370;6.770;2023-03-14T01:08:08;27.70;;;4.40;;
48849;SDS011;63210;53.370;6.770;2023-03-14T01:10:38;22.38;;;4.97;;
48849;SDS011;63210;53.370;6.770;2023-03-14T01:13:07;19.95;;;3.97;;
48849;SDS011;63210;53.370;6.770;2023-03-14T01:15:36;29.23;;;4.70;;
48849;SDS011;63210;53.370;6.770;2023-03-14T01:18:17;23.60;;;6.35;;
48849;SDS011;63210;53.370;6.770;2023-03-14T01:20:48;21.45;;;4.15;;
48849;SDS011;63210;53.370;6.770;2023-03-14T01:23:19;27.45;;;6.00;;
48849;SDS011;63210;53.370;6.770;2023-03-14T01:25:56;18.17;;;3.72;;
48849;SDS011;63210;53.370;6.770;2023-03-14T01:28:25;20.67;;;4.85;;
48849;SDS011;63210;53.370;6.770;2023-03-14T01:31:01;24.05;;;5.72;;
48849;SDS011;63210;53.370;6.770;2023-03-14T01:34:01;22.48;;;4.28;;
48849;SDS011;63210;53.370;6.770;2023-03-14T01:36:33;18.73;;;3.60;;
48849;SDS011;63210;53.370;6.770;2023-03-14T01:39:10;23.55;;;5.93;;
48849;SDS011;63210;53.370;6.770;2023-03-14T01:41:48;21.08;;;4.93;;
48849;SDS011;63210;53.370;6.770;2023-03-14T01:44:18;19.00;;;4.05;;
48849;SDS011;63210;53.370;6.770;2023-03-14T01:46:51;22.80;;;4.25;;
48849;SDS011;63210;53.370;6.770;2023-03-14T01:54:45;23.10;;;5.10;;
48849;SDS011;63210;53.370;6.770;2023-03-14T01:59:40;20.10;;;3.83;;
48849;SDS011;63210;53.370;6.770;2023-03-14T02:02:07;22.80;;;3.25;;
48849;SDS011;63210;53.370;6.770;2023-03-14T02:04:49;22.40;;;3.70;;
48849;SDS011;63210;53.370;6.770;2023-03-14T02:09:44;26.92;;;4.65;;
48849;SDS011;63210;53.370;6.770;2023-03-14T02:12:10;11.77;;;2.78;;
48849;SDS011;63210;53.370;6.770;2023-03-14T02:14:43;13.32;;;2.92;;
48849;SDS011;63210;53.370;6.770;2023-03-14T02:17:26;13.00;;;2.67;;
48849;SDS011;63210;53.370;6.770;2023-03-14T02:22:37;17.60;;;3.67;;
48849;SDS011;63210;53.370;6.770;2023-03-14T02:27:52;18.45;;;4.20;;
48849;SDS011;63210;53.370;6.770;2023-03-14T02:30:21;13.20;;;3.20;;
48849;SDS011;63210;53.370;6.770;2023-03-14T02:32:48;12.55;;;2.50;;
48849;SDS011;63210;53.370;6.770;2023-03-14T02:35:19;12.82;;;3.10;;
48849;SDS011;63210;53.370;6.770;2023-03-14T02:40:34;15.75;;;3.03;;
48849;SDS011;63210;53.370;6.770;2023-03-14T02:43:02;21.48;;;3.90;;
48849;SDS011;63210;53.370;6.770;2023-03-14T02:48:03;9.80;;;2.30;;
48849;SDS011;63210;53.370;6.770;2023-03-14T02:50:33;15.73;;;3.25;;
48849;SDS011;63210;53.370;6.770;2023-03-14T02:53:08;12.13;;;2.45;;
48849;SDS011;63210;53.370;6.770;2023-03-14T02:55:39;15.98;;;2.28;;
48849;SDS011;63210;53.370;6.770;2023-03-14T02:58:19;14.77;;;2.58;;
48849;SDS011;63210;53.370;6.770;2023-03-14T03:01:07;11.90;;;2.38;;
48849;SDS011;63210;53.370;6.770;2023-03-14T03:03:38;20.30;;;2.72;;
48849;SDS011;63210;53.370;6.770;2023-03-14T03:06:10;12.43;;;3.10;;
48849;SDS011;63210;53.370;6.770;2023-03-14T03:08:45;10.85;;;3.17;;
48849;SDS011;63210;53.370;6.770;2023-03-14T03:11:25;15.88;;;3.05;;
48849;SDS011;63210;53.370;6.770;2023-03-14T03:13:50;5.97;;;2.30;;
48849;SDS011;63210;53.370;6.770;2023-03-14T03:16:18;15.30;;;2.70;;
48849;SDS011;63210;53.370;6.770;2023-03-14T03:18:45;13.43;;;2.40;;
48849;SDS011;63210;53.370;6.770;2023-03-14T03:21:14;15.23;;;3.53;;
48849;SDS011;63210;53.370;6.770;2023-03-14T03:23:43;12.93;;;3.22;;
48849;SDS011;63210;53.370;6.770;2023-03-14T03:26:09;8.32;;;2.30;;
48849;SDS011;63210;53.370;6.770;2023-03-14T03:28:36;10.38;;;2.58;;
48849;SDS011;63210;53.370;6.770;2023-03-14T03:31:11;8.63;;;2.38;;
48849;SDS011;63210;53.370;6.770;2023-03-14T03:33:39;8.82;;;2.88;;
48849;SDS011;63210;53.370;6.770;2023-03-14T03:36:06;14.90;;;3.88;;
48849;SDS011;63210;53.370;6.770;2023-03-14T03:38:42;15.35;;;4.70;;
48849;SDS011;63210;53.370;6.770;2023-03-14T03:41:29;11.90;;;3.22;;
48849;SDS011;63210;53.370;6.770;2023-03-14T03:44:00;21.05;;;4.93;;
48849;SDS011;63210;53.370;6.770;2023-03-14T03:46:31;9.00;;;3.22;;
48849;SDS011;63210;53.370;6.770;2023-03-14T03:49:00;10.63;;;3.35;;
48849;SDS011;63210;53.370;6.770;2023-03-14T03:51:34;11.65;;;3.90;;
48849;SDS011;63210;53.370;6.770;2023-03-14T03:54:05;13.63;;;3.97;;
48849;SDS011;63210;53.370;6.770;2023-03-14T03:56:37;16.60;;;4.70;;
48849;SDS011;63210;53.370;6.770;2023-03-14T03:59:02;16.88;;;4.63;;
48849;SDS011;63210;53.370;6.770;2023-03-14T04:01:34;10.07;;;3.42;;
48849;SDS011;63210;53.370;6.770;2023-03-14T04:04:02;17.60;;;4.00;;
48849;SDS011;63210;53.370;6.770;2023-03-14T04:06:39;13.65;;;3.88;;
48849;SDS011;63210;53.370;6.770;2023-03-14T04:09:10;13.65;;;3.78;;
48849;SDS011;63210;53.370;6.770;2023-03-14T04:11:42;21.08;;;5.70;;
48849;SDS011;63210;53.370;6.770;2023-03-14T04:14:07;14.73;;;4.00;;
48849;SDS011;63210;53.370;6.770;2023-03-14T04:16:38;20.33;;;5.60;;
48849;SDS011;63210;53.370;6.770;2023-03-14T04:19:09;18.27;;;4.47;;
48849;SDS011;63210;53.370;6.770;2023-03-14T04:21:41;17.67;;;4.43;;
48849;SDS011;63210;53.370;6.770;2023-03-14T04:24:12;14.50;;;3.50;;
48849;SDS011;63210;53.370;6.770;2023-03-14T04:26:38;27.13;;;5.68;;
48849;SDS011;63210;53.370;6.770;2023-03-14T04:29:15;20.58;;;4.75;;
48849;SDS011;63210;53.370;6.770;2023-03-14T04:31:43;18.38;;;3.90;;
48849;SDS011;63210;53.370;6.770;2023-03-14T04:34:11;19.48;;;5.25;;
48849;SDS011;63210;53.370;6.770;2023-03-14T04:36:51;22.48;;;5.00;;
48849;SDS011;63210;53.370;6.770;2023-03-14T04:39:22;18.35;;;3.92;;
48849;SDS011;63210;53.370;6.770;2023-03-14T04:41:48;20.25;;;4.78;;
48849;SDS011;63210;53.370;6.770;2023-03-14T04:44:25;17.80;;;4.40;;
48849;SDS011;63210;53.370;6.770;2023-03-14T04:47:01;19.50;;;4.55;;
48849;SDS011;63210;53.370;6.770;2023-03-14T04:49:30;31.50;;;6.20;;
48849;SDS011;63210;53.370;6.770;2023-03-14T04:52:16;25.73;;;5.22;;
48849;SDS011;63210;53.370;6.770;2023-03-14T04:54:45;25.58;;;6.03;;
48849;SDS011;63210;53.370;6.770;2023-03-14T04:57:30;23.45;;;6.68;;
48849;SDS011;63210;53.370;6.770;2023-03-14T04:59:58;26.25;;;5.97;;
48849;SDS011;63210;53.370;6.770;2023-03-14T05:02:27;23.73;;;5.72;;
48849;SDS011;63210;53.370;6.770;2023-03-14T05:04:55;19.08;;;5.07;;
48849;SDS011;63210;53.370;6.770;2023-03-14T05:07:21;16.58;;;5.00;;
48849;SDS011;63210;53.370;6.770;2023-03-14T05:09:49;17.02;;;6.07;;
48849;SDS011;63210;53.370;6.770;2023-03-14T05:14:58;15.68;;;5.60;;
48849;SDS011;63210;53.370;6.770;2023-03-14T05:17:23;21.42;;;6.75;;
48849;SDS011;63210;53.370;6.770;2023-03-14T05:19:49;17.05;;;6.90;;
48849;SDS011;63210;53.370;6.770;2023-03-14T05:22:20;22.40;;;9.05;;
48849;SDS011;63210;53.370;6.770;2023-03-14T05:25:07;15.57;;;6.93;;
48849;SDS011;63210;53.370;6.770;2023-03-14T05:27:34;18.85;;;7.82;;
48849;SDS011;63210;53.370;6.770;2023-03-14T05:30:08;18.85;;;6.85;;
48849;SDS011;63210;53.370;6.770;2023-03-14T05:32:41;14.50;;;6.78;;
48849;SDS011;63210;53.370;6.770;2023-03-14T05:35:06;20.02;;;7.85;;
48849;SDS011;63210;53.370;6.770;2023-03-14T05:40:06;11.70;;;6.22;;
48849;SDS011;63210;53.370;6.770;2023-03-14T05:42:36;14.15;;;6.10;;
48849;SDS011;63210;53.370;6.770;2023-03-14T05:45:35;16.73;;;7.32;;
48849;SDS011;63210;53.370;6.770;2023-03-14T05:47:53;15.02;;;6.72;;
48849;SDS011;63210;53.370;6.770;2023-03-14T05:50:19;11.68;;;4.90;;
48849;SDS011;63210;53.370;6.770;2023-03-14T05:52:47;16.33;;;6.20;;
48849;SDS011;63210;53.370;6.770;2023-03-14T05:55:15;13.20;;;5.93;;
48849;SDS011;63210;53.370;6.770;2023-03-14T05:57:49;12.73;;;7.85;;
48849;SDS011;63210;53.370;6.770;2023-03-14T06:00:15;13.25;;;6.47;;
48849;SDS011;63210;53.370;6.770;2023-03-14T06:02:51;15.38;;;6.35;;
48849;SDS011;63210;53.370;6.770;2023-03-14T06:05:17;9.68;;;5.55;;
48849;SDS011;63210;53.370;6.770;2023-03-14T06:07:43;10.40;;;5.40;;
48849;SDS011;63210;53.370;6.770;2023-03-14T06:10:14;13.60;;;4.32;;
48849;SDS011;63210;53.370;6.770;2023-03-14T06:12:59;7.22;;;4.00;;
48849;SDS011;63210;53.370;6.770;2023-03-14T06:15:44;24.40;;;16.38;;
48849;SDS011;63210;53.370;6.770;2023-03-14T06:18:09;10.68;;;6.70;;
48849;SDS011;63210;53.370;6.770;2023-03-14T06:20:39;19.10;;;11.10;;
48849;SDS011;63210;53.370;6.770;2023-03-14T06:23:05;40.05;;;22.13;;
48849;SDS011;63210;53.370;6.770;2023-03-14T06:25:36;52.20;;;29.45;;
48849;SDS011;63210;53.370;6.770;2023-03-14T06:28:07;38.10;;;29.42;;
48849;SDS011;63210;53.370;6.770;2023-03-14T06:33:18;4.95;;;1.77;;
48849;SDS011;63210;53.370;6.770;2023-03-14T06:35:49;5.75;;;1.95;;
48849;SDS011;63210;53.370;6.770;2023-03-14T06:38:20;10.75;;;2.45;;
48849;SDS011;63210;53.370;6.770;2023-03-14T06:40:46;9.73;;;1.95;;
48849;SDS011;63210;53.370;6.770;2023-03-14T06:43:11;18.05;;;2.45;;
48849;SDS011;63210;53.370;6.770;2023-03-14T06:45:40;18.83;;;2.85;;
48849;SDS011;63210;53.370;6.770;2023-03-14T06:48:10;9.10;;;2.25;;
48849;SDS011;63210;53.370;6.770;2023-03-14T06:50:52;12.68;;;1.77;;
48849;SDS011;63210;53.370;6.770;2023-03-14T06:53:21;24.38;;;2.20;;
48849;SDS011;63210;53.370;6.770;2023-03-14T06:55:46;10.30;;;1.60;;
48849;SDS011;63210;53.370;6.770;2023-03-14T06:58:36;12.70;;;2.03;;
48849;SDS011;63210;53.370;6.770;2023-03-14T07:01:05;10.70;;;1.63;;
48849;SDS011;63210;53.370;6.770;2023-03-14T07:03:40;10.88;;;1.33;;
48849;SDS011;63210;53.370;6.770;2023-03-14T07:06:08;9.98;;;1.27;;
48849;SDS011;63210;53.370;6.770;2023-03-14T07:09:01;9.45;;;1.40;;
48849;SDS011;63210;53.370;6.770;2023-03-14T07:11:30;7.28;;;1.45;;
48849;SDS011;63210;53.370;6.770;2023-03-14T07:14:53;6.20;;;1.42;;
48849;SDS011;63210;53.370;6.770;2023-03-14T07:17:23;5.28;;;0.98;;
48849;SDS011;63210;53.370;6.770;2023-03-14T07:19:58;5.10;;;1.30;;
48849;SDS011;63210;53.370;6.770;2023-03-14T07:22:35;4.78;;;0.98;;
48849;SDS011;63210;53.370;6.770;2023-03-14T07:25:09;7.00;;;1.67;;
48849;SDS011;63210;53.370;6.770;2023-03-14T07:27:37;4.65;;;0.88;;
48849;SDS011;63210;53.370;6.770;2023-03-14T07:30:05;3.40;;;0.80;;
48849;SDS011;63210;53.370;6.770;2023-03-14T07:32:39;2.80;;;0.88;;
48849;SDS011;63210;53.370;6.770;2023-03-14T07:35:05;3.85;;;0.95;;
48849;SDS011;63210;53.370;6.770;2023-03-14T07:37:33;6.43;;;2.30;;
48849;SDS011;63210;53.370;6.770;2023-03-14T07:40:01;2.00;;;0.80;;
48849;SDS011;63210;53.370;6.770;2023-03-14T07:42:32;6.43;;;1.95;;
48849;SDS011;63210;53.370;6.770;2023-03-14T07:44:57;11.73;;;0.93;;
48849;SDS011;63210;53.370;6.770;2023-03-14T07:47:34;4.20;;;0.93;;
48849;SDS011;63210;53.370;6.770;2023-03-14T07:50:04;5.00;;;0.95;;
48849;SDS011;63210;53.370;6.770;2023-03-14T07:52:32;5.93;;;2.13;;
48849;SDS011;63210;53.370;6.770;2023-03-14T07:54:58;3.85;;;1.38;;
48849;SDS011;63210;53.370;6.770;2023-03-14T07:57:23;4.43;;;1.20;;
48849;SDS011;63210;53.370;6.770;2023-03-14T07:59:49;7.90;;;1.02;;
48849;SDS011;63210;53.370;6.770;2023-03-14T08:02:18;8.55;;;1.20;;
48849;SDS011;63210;53.370;6.770;2023-03-14T08:04:45;1.55;;;0.85;;
48849;SDS011;63210;53.370;6.770;2023-03-14T08:07:10;9.65;;;1.15;;
48849;SDS011;63210;53.370;6.770;2023-03-14T08:09:36;7.78;;;1.20;;
48849;SDS011;63210;53.370;6.770;2023-03-14T08:12:03;4.03;;;0.80;;
48849;SDS011;63210;53.370;6.770;2023-03-14T08:14:36;7.70;;;1.70;;
48849;SDS011;63210;53.370;6.770;2023-03-14T08:17:08;4.88;;;1.33;;
48849;SDS011;63210;53.370;6.770;2023-03-14T08:19:45;4.03;;;0.80;;
48849;SDS011;63210;53.370;6.770;2023-03-14T08:22:10;3.20;;;0.90;;
48849;SDS011;63210;53.370;6.770;2023-03-14T08:24:36;8.02;;;2.05;;
48849;SDS011;63210;53.370;6.770;2023-03-14T08:27:07;3.15;;;1.08;;
48849;SDS011;63210;53.370;6.770;2023-03-14T08:29:39;8.27;;;1.10;;
48849;SDS011;63210;53.370;6.770;2023-03-14T08:32:09;10.05;;;1.42;;
48849;SDS011;63210;53.370;6.770;2023-03-14T08:34:45;7.00;;;1.20;;
48849;SDS011;63210;53.370;6.770;2023-03-14T08:37:18;7.00;;;1.45;;
48849;SDS011;63210;53.370;6.770;2023-03-14T08:39:44;10.65;;;1.90;;
48849;SDS011;63210;53.370;6.770;2023-03-14T08:42:14;6.05;;;1.88;;
48849;SDS011;63210;53.370;6.770;2023-03-14T08:44:42;10.18;;;1.98;;
48849;SDS011;63210;53.370;6.770;2023-03-14T08:47:24;7.20;;;1.52;;
48849;SDS011;63210;53.370;6.770;2023-03-14T08:50:17;12.25;;;1.77;;
48849;SDS011;63210;53.370;6.770;2023-03-14T08:52:45;12.77;;;3.08;;
48849;SDS011;63210;53.370;6.770;2023-03-14T08:55:28;13.70;;;2.65;;
48849;SDS011;63210;53.370;6.770;2023-03-14T08:57:59;12.80;;;1.95;;
48849;SDS011;63210;53.370;6.770;2023-03-14T09:00:39;11.48;;;1.58;;
48849;SDS011;63210;53.370;6.770;2023-03-14T09:03:04;17.20;;;2.08;;
48849;SDS011;63210;53.370;6.770;2023-03-14T09:05:32;8.30;;;1.35;;
48849;SDS011;63210;53.370;6.770;2023-03-14T09:08:01;18.00;;;2.60;;
48849;SDS011;63210;53.370;6.770;2023-03-14T09:10:29;10.55;;;1.92;;
48849;SDS011;63210;53.370;6.770;2023-03-14T09:12:55;9.93;;;2.22;;
48849;SDS011;63210;53.370;6.770;2023-03-14T09:15:54;8.13;;;1.77;;
48849;SDS011;63210;53.370;6.770;2023-03-14T09:20:45;12.90;;;2.70;;
48849;SDS011;63210;53.370;6.770;2023-03-14T09:23:11;15.32;;;2.58;;
48849;SDS011;63210;53.370;6.770;2023-03-14T09:25:40;17.20;;;2.55;;
48849;SDS011;63210;53.370;6.770;2023-03-14T09:28:09;23.70;;;2.60;;
48849;SDS011;63210;53.370;6.770;2023-03-14T09:30:34;20.38;;;3.10;;
48849;SDS011;63210;53.370;6.770;2023-03-14T09:33:05;20.00;;;3.17;;
48849;SDS011;63210;53.370;6.770;2023-03-14T09:35:36;24.92;;;2.85;;
48849;SDS011;63210;53.370;6.770;2023-03-14T09:38:01;21.02;;;3.75;;
48849;SDS011;63210;53.370;6.770;2023-03-14T09:40:34;21.02;;;3.20;;
48849;SDS011;63210;53.370;6.770;2023-03-14T09:43:12;21.60;;;2.97;;
48849;SDS011;63210;53.370;6.770;2023-03-14T09:45:41;21.65;;;3.17;;
48849;SDS011;63210;53.370;6.770;2023-03-14T09:48:22;17.48;;;2.53;;
48849;SDS011;63210;53.370;6.770;2023-03-14T09:50:55;16.90;;;3.30;;
48849;SDS011;63210;53.370;6.770;2023-03-14T09:53:41;13.43;;;3.92;;
48849;SDS011;63210;53.370;6.770;2023-03-14T09:58:54;16.48;;;2.55;;
48849;SDS011;63210;53.370;6.770;2023-03-14T10:01:22;17.45;;;2.85;;
48849;SDS011;63210;53.370;6.770;2023-03-14T10:03:53;18.90;;;3.58;;
48849;SDS011;63210;53.370;6.770;2023-03-14T10:09:11;18.13;;;3.67;;
48849;SDS011;63210;53.370;6.770;2023-03-14T10:11:55;12.82;;;2.20;;
48849;SDS011;63210;53.370;6.770;2023-03-14T10:14:35;15.77;;;2.72;;
48849;SDS011;63210;53.370;6.770;2023-03-14T10:17:06;18.85;;;2.45;;
48849;SDS011;63210;53.370;6.770;2023-03-14T10:19:35;12.95;;;2.35;;
48849;SDS011;63210;53.370;6.770;2023-03-14T10:22:13;18.08;;;2.90;;
48849;SDS011;63210;53.370;6.770;2023-03-14T10:24:45;15.30;;;2.67;;
48849;SDS011;63210;53.370;6.770;2023-03-14T10:27:18;13.75;;;2.45;;
48849;SDS011;63210;53.370;6.770;2023-03-14T10:29:53;11.90;;;2.45;;
48849;SDS011;63210;53.370;6.770;2023-03-14T10:32:20;9.77;;;2.20;;
48849;SDS011;63210;53.370;6.770;2023-03-14T10:34:46;11.68;;;2.53;;
48849;SDS011;63210;53.370;6.770;2023-03-14T10:37:31;12.60;;;1.80;;
48849;SDS011;63210;53.370;6.770;2023-03-14T10:40:00;8.52;;;1.77;;
48849;SDS011;63210;53.370;6.770;2023-03-14T10:42:39;15.00;;;1.73;;
48849;SDS011;63210;53.370;6.770;2023-03-14T10:47:59;6.82;;;2.28;;
48849;SDS011;63210;53.370;6.770;2023-03-14T10:50:29;12.95;;;2.78;;
48849;SDS011;63210;53.370;6.770;2023-03-14T10:53:00;10.93;;;2.20;;
48849;SDS011;63210;53.370;6.770;2023-03-14T10:55:41;7.55;;;1.85;;
48849;SDS011;63210;53.370;6.770;2023-03-14T11:00:49;12.88;;;2.08;;
48849;SDS011;63210;53.370;6.770;2023-03-14T11:03:16;14.68;;;2.00;;
48849;SDS011;63210;53.370;6.770;2023-03-14T11:05:57;11.88;;;3.08;;
48849;SDS011;63210;53.370;6.770;2023-03-14T11:08:31;10.57;;;2.20;;
48849;SDS011;63210;53.370;6.770;2023-03-14T11:11:07;6.93;;;1.40;;
48849;SDS011;63210;53.370;6.770;2023-03-14T11:22:03;9.35;;;1.80;;
48849;SDS011;63210;53.370;6.770;2023-03-14T11:27:21;8.60;;;2.28;;
48849;SDS011;63210;53.370;6.770;2023-03-14T11:42:34;12.15;;;2.10;;
48849;SDS011;63210;53.370;6.770;2023-03-14T11:45:10;9.90;;;1.92;;
48849;SDS011;63210;53.370;6.770;2023-03-14T11:47:39;6.95;;;1.35;;
48849;SDS011;63210;53.370;6.770;2023-03-14T11:50:21;7.80;;;2.88;;
48849;SDS011;63210;53.370;6.770;2023-03-14T11:53:05;15.40;;;3.92;;
48849;SDS011;63210;53.370;6.770;2023-03-14T11:55:32;7.40;;;1.60;;
48849;SDS011;63210;53.370;6.770;2023-03-14T11:57:59;16.50;;;7.07;;
48849;SDS011;63210;53.370;6.770;2023-03-14T12:00:29;7.78;;;1.63;;
48849;SDS011;63210;53.370;6.770;2023-03-14T12:08:38;7.60;;;1.60;;
48849;SDS011;63210;53.370;6.770;2023-03-14T12:13:45;16.80;;;2.00;;
48849;SDS011;63210;53.370;6.770;2023-03-14T12:16:30;13.00;;;2.13;;
48849;SDS011;63210;53.370;6.770;2023-03-14T12:18:57;12.00;;;3.85;;
48849;SDS011;63210;53.370;6.770;2023-03-14T12:22:00;10.57;;;2.97;;
48849;SDS011;63210;53.370;6.770;2023-03-14T12:24:34;13.07;;;2.15;;
48849;SDS011;63210;53.370;6.770;2023-03-14T12:27:06;14.48;;;2.22;;
48849;SDS011;63210;53.370;6.770;2023-03-14T12:29:59;8.85;;;2.33;;
48849;SDS011;63210;53.370;6.770;2023-03-14T12:32:35;6.65;;;1.60;;
48849;SDS011;63210;53.370;6.770;2023-03-14T12:37:53;16.85;;;4.32;;
48849;SDS011;63210;53.370;6.770;2023-03-14T12:40:21;18.25;;;3.55;;
48849;SDS011;63210;53.370;6.770;2023-03-14T12:43:00;5.85;;;1.90;;
48849;SDS011;63210;53.370;6.770;2023-03-14T12:45:35;7.50;;;1.55;;
48849;SDS011;63210;53.370;6.770;2023-03-14T12:48:08;9.23;;;1.83;;
48849;SDS011;63210;53.370;6.770;2023-03-14T12:50:35;8.68;;;2.30;;
48849;SDS011;63210;53.370;6.770;2023-03-14T12:55:49;12.05;;;2.88;;
48849;SDS011;63210;53.370;6.770;2023-03-14T12:58:20;14.40;;;2.28;;
48849;SDS011;63210;53.370;6.770;2023-03-14T13:00:55;6.72;;;1.80;;
48849;SDS011;63210;53.370;6.770;2023-03-14T13:06:08;10.98;;;3.15;;
48849;SDS011;63210;53.370;6.770;2023-03-14T13:11:06;10.55;;;1.98;;
48849;SDS011;63210;53.370;6.770;2023-03-14T13:13:34;16.30;;;1.90;;
48849;SDS011;63210;53.370;6.770;2023-03-14T13:16:00;8.55;;;1.58;;
48849;SDS011;63210;53.370;6.770;2023-03-14T13:21:17;5.63;;;1.50;;
48849;SDS011;63210;53.370;6.770;2023-03-14T13:24:04;7.70;;;1.42;;
48849;SDS011;63210;53.370;6.770;2023-03-14T13:26:41;8.95;;;2.00;;
48849;SDS011;63210;53.370;6.770;2023-03-14T13:29:29;4.55;;;1.38;;
48849;SDS011;63210;53.370;6.770;2023-03-14T13:32:12;6.18;;;1.90;;
48849;SDS011;63210;53.370;6.770;2023-03-14T13:34:39;8.43;;;1.50;;
48849;SDS011;63210;53.370;6.770;2023-03-14T13:37:13;13.07;;;1.85;;
48849;SDS011;63210;53.370;6.770;2023-03-14T13:39:42;8.55;;;1.42;;
48849;SDS011;63210;53.370;6.770;2023-03-14T13:42:13;3.22;;;1.25;;
48849;SDS011;63210;53.370;6.770;2023-03-14T13:44:43;4.75;;;1.45;;
48849;SDS011;63210;53.370;6.770;2023-03-14T13:47:21;5.93;;;1.80;;
48849;SDS011;63210;53.370;6.770;2023-03-14T13:49:48;7.97;;;1.55;;
48849;SDS011;63210;53.370;6.770;2023-03-14T13:52:22;6.53;;;1.70;;
48849;SDS011;63210;53.370;6.770;2023-03-14T13:54:47;9.77;;;1.80;;
48849;SDS011;63210;53.370;6.770;2023-03-14T13:57:15;9.07;;;1.60;;
48849;SDS011;63210;53.370;6.770;2023-03-14T14:00:00;6.38;;;1.98;;
48849;SDS011;63210;53.370;6.770;2023-03-14T14:02:26;12.57;;;1.88;;
48849;SDS011;63210;53.370;6.770;2023-03-14T14:04:52;10.52;;;2.40;;
48849;SDS011;63210;53.370;6.770;2023-03-14T14:07:20;9.57;;;1.80;;
48849;SDS011;63210;53.370;6.770;2023-03-14T14:09:47;12.88;;;2.05;;
48849;SDS011;63210;53.370;6.770;2023-03-14T14:12:22;18.60;;;3.67;;
48849;SDS011;63210;53.370;6.770;2023-03-14T14:17:44;8.15;;;1.77;;
48849;SDS011;63210;53.370;6.770;2023-03-14T14:20:28;7.70;;;2.05;;
48849;SDS011;63210;53.370;6.770;2023-03-14T14:22:58;6.43;;;1.80;;
48849;SDS011;63210;53.370;6.770;2023-03-14T14:25:33;6.65;;;1.70;;
48849;SDS011;63210;53.370;6.770;2023-03-14T14:30:58;10.68;;;3.55;;
48849;SDS011;63210;53.370;6.770;2023-03-14T14:33:24;11.82;;;2.83;;
48849;SDS011;63210;53.370;6.770;2023-03-14T14:35:57;26.38;;;9.88;;
48849;SDS011;63210;53.370;6.770;2023-03-14T14:38:27;17.98;;;2.25;;
48849;SDS011;63210;53.370;6.770;2023-03-14T14:41:03;16.25;;;4.70;;
48849;SDS011;63210;53.370;6.770;2023-03-14T14:43:43;12.95;;;2.72;;
48849;SDS011;63210;53.370;6.770;2023-03-14T14:46:27;11.68;;;2.60;;
48849;SDS011;63210;53.370;6.770;2023-03-14T14:51:45;12.48;;;1.92;;
48849;SDS011;63210;53.370;6.770;2023-03-14T14:54:13;12.40;;;6.32;;
48849;SDS011;63210;53.370;6.770;2023-03-14T14:56:39;4.72;;;1.90;;
48849;SDS011;63210;53.370;6.770;2023-03-14T14:59:17;7.07;;;2.10;;
48849;SDS011;63210;53.370;6.770;2023-03-14T15:01:45;16.63;;;5.05;;
48849;SDS011;63210;53.370;6.770;2023-03-14T15:04:15;12.80;;;2.08;;
48849;SDS011;63210;53.370;6.770;2023-03-14T15:07:04;9.05;;;1.83;;
48849;SDS011;63210;53.370;6.770;2023-03-14T15:09:30;6.20;;;2.92;;
48849;SDS011;63210;53.370;6.770;2023-03-14T15:11:56;4.55;;;1.20;;
48849;SDS011;63210;53.370;6.770;2023-03-14T15:14:47;7.32;;;1.45;;
48849;SDS011;63210;53.370;6.770;2023-03-14T15:17:21;9.95;;;2.10;;
48849;SDS011;63210;53.370;6.770;2023-03-14T15:19:47;6.50;;;2.17;;
48849;SDS011;63210;53.370;6.770;2023-03-14T15:22:15;9.68;;;1.35;;
48849;SDS011;63210;53.370;6.770;2023-03-14T15:27:18;7.97;;;1.67;;
48849;SDS011;63210;53.370;6.770;2023-03-14T15:29:47;7.65;;;1.63;;
48849;SDS011;63210;53.370;6.770;2023-03-14T15:32:13;8.60;;;2.20;;
48849;SDS011;63210;53.370;6.770;2023-03-14T15:34:44;30.60;;;16.70;;
48849;SDS011;63210;53.370;6.770;2023-03-14T15:37:13;4.40;;;1.70;;
48849;SDS011;63210;53.370;6.770;2023-03-14T15:39:41;12.60;;;1.58;;
48849;SDS011;63210;53.370;6.770;2023-03-14T15:42:10;5.80;;;2.55;;
48849;SDS011;63210;53.370;6.770;2023-03-14T15:44:38;11.63;;;4.72;;
48849;SDS011;63210;53.370;6.770;2023-03-14T15:47:13;11.32;;;3.60;;
48849;SDS011;63210;53.370;6.770;2023-03-14T15:49:38;6.93;;;2.00;;
48849;SDS011;63210;53.370;6.770;2023-03-14T15:52:09;6.28;;;1.35;;
48849;SDS011;63210;53.370;6.770;2023-03-14T15:54:56;5.15;;;1.73;;
48849;SDS011;63210;53.370;6.770;2023-03-14T15:57:21;10.20;;;3.88;;
48849;SDS011;63210;53.370;6.770;2023-03-14T15:59:47;7.18;;;1.67;;
48849;SDS011;63210;53.370;6.770;2023-03-14T16:02:16;12.35;;;2.10;;
48849;SDS011;63210;53.370;6.770;2023-03-14T16:04:46;7.97;;;3.00;;
48849;SDS011;63210;53.370;6.770;2023-03-14T16:07:13;6.97;;;1.80;;
48849;SDS011;63210;53.370;6.770;2023-03-14T16:09:38;7.05;;;1.60;;
48849;SDS011;63210;53.370;6.770;2023-03-14T16:12:04;15.65;;;2.25;;
48849;SDS011;63210;53.370;6.770;2023-03-14T16:14:31;11.40;;;1.80;;
48849;SDS011;63210;53.370;6.770;2023-03-14T16:16:57;11.18;;;5.30;;
48849;SDS011;63210;53.370;6.770;2023-03-14T16:19:24;11.55;;;2.30;;
48849;SDS011;63210;53.370;6.770;2023-03-14T16:21:50;6.95;;;2.33;;
48849;SDS011;63210;53.370;6.770;2023-03-14T16:24:23;11.32;;;1.48;;
48849;SDS011;63210;53.370;6.770;2023-03-14T16:26:52;7.60;;;2.15;;
48849;SDS011;63210;53.370;6.770;2023-03-14T16:29:19;10.98;;;1.80;;
48849;SDS011;63210;53.370;6.770;2023-03-14T16:31:46;11.25;;;2.20;;
48849;SDS011;63210;53.370;6.770;2023-03-14T16:34:12;4.82;;;1.98;;
48849;SDS011;63210;53.370;6.770;2023-03-14T16:36:44;5.18;;;1.65;;
48849;SDS011;63210;53.370;6.770;2023-03-14T16:39:18;9.27;;;2.83;;
48849;SDS011;63210;53.370;6.770;2023-03-14T16:41:43;10.73;;;2.05;;
48849;SDS011;63210;53.370;6.770;2023-03-14T16:44:11;6.65;;;2.28;;
48849;SDS011;63210;53.370;6.770;2023-03-14T16:46:40;10.75;;;2.20;;
48849;SDS011;63210;53.370;6.770;2023-03-14T16:49:05;7.15;;;1.48;;
48849;SDS011;63210;53.370;6.770;2023-03-14T16:51:31;10.55;;;2.03;;